sensor_id;sensor_type;location;lat;lon;timestamp;P1;durP1;ratioP1;P2;durP2;ratioP2
75916;SDS011;64595;50.148;14.334;2023-07-09T00:01:45;7.47;;;6.05;;
75916;SDS011;64595;50.148;14.334;2023-07-09T00:04:11;10.52;;;6.70;;
75916;SDS011;64595;50.148;14.334;2023-07-09T00:06:37;8.07;;;6.20;;
75916;SDS011;64595;50.148;14.334;2023-07-09T00:09:02;10.73;;;6.60;;
75916;SDS011;64595;50.148;14.334;2023-07-09T00:11:28;7.40;;;6.15;;
75916;SDS011;64595;50.148;14.334;2023-07-09T00:13:55;10.23;;;6.65;;
75916;SDS011;64595;50.148;14.334;2023-07-09T00:16:21;8.20;;;6.40;;
75916;SDS011;64595;50.148;14.334;2023-07-09T00:18:49;9.35;;;7.65;;
75916;SDS011;64595;50.148;14.334;2023-07-09T00:21:15;9.77;;;7.20;;
75916;SDS011;64595;50.148;14.334;2023-07-09T00:23:41;10.77;;;7.95;;
75916;SDS011;64595;50.148;14.334;2023-07-09T00:26:07;9.68;;;7.05;;
75916;SDS011;64595;50.148;14.334;2023-07-09T00:28:33;9.65;;;8.15;;
75916;SDS011;64595;50.148;14.334;2023-07-09T00:31:00;11.50;;;7.38;;
75916;SDS011;64595;50.148;14.334;2023-07-09T00:33:26;10.50;;;6.93;;
75916;SDS011;64595;50.148;14.334;2023-07-09T00:35:51;10.23;;;7.90;;
75916;SDS011;64595;50.148;14.334;2023-07-09T00:38:18;9.38;;;7.05;;
75916;SDS011;64595;50.148;14.334;2023-07-09T00:40:48;9.55;;;7.35;;
75916;SDS011;64595;50.148;14.334;2023-07-09T00:43:27;10.75;;;7.05;;
75916;SDS011;64595;50.148;14.334;2023-07-09T00:48:42;13.40;;;8.00;;
75916;SDS011;64595;50.148;14.334;2023-07-09T00:51:09;8.85;;;7.18;;
75916;SDS011;64595;50.148;14.334;2023-07-09T00:53:35;8.48;;;6.40;;
75916;SDS011;64595;50.148;14.334;2023-07-09T00:56:02;8.50;;;7.00;;
75916;SDS011;64595;50.148;14.334;2023-07-09T00:58:30;9.05;;;7.18;;
75916;SDS011;64595;50.148;14.334;2023-07-09T01:00:58;9.52;;;6.50;;
75916;SDS011;64595;50.148;14.334;2023-07-09T01:03:27;8.35;;;6.20;;
75916;SDS011;64595;50.148;14.334;2023-07-09T01:05:57;8.13;;;6.63;;
75916;SDS011;64595;50.148;14.334;2023-07-09T01:08:23;9.98;;;7.03;;
75916;SDS011;64595;50.148;14.334;2023-07-09T01:10:48;9.18;;;6.15;;
75916;SDS011;64595;50.148;14.334;2023-07-09T01:13:14;9.70;;;7.43;;
75916;SDS011;64595;50.148;14.334;2023-07-09T01:15:40;10.90;;;7.10;;
75916;SDS011;64595;50.148;14.334;2023-07-09T01:18:06;7.70;;;6.75;;
75916;SDS011;64595;50.148;14.334;2023-07-09T01:20:33;7.95;;;6.43;;
75916;SDS011;64595;50.148;14.334;2023-07-09T01:23:00;8.60;;;7.50;;
75916;SDS011;64595;50.148;14.334;2023-07-09T01:25:25;9.57;;;6.85;;
75916;SDS011;64595;50.148;14.334;2023-07-09T01:27:51;7.45;;;6.70;;
75916;SDS011;64595;50.148;14.334;2023-07-09T01:30:18;9.75;;;7.25;;
75916;SDS011;64595;50.148;14.334;2023-07-09T01:32:45;11.35;;;7.28;;
75916;SDS011;64595;50.148;14.334;2023-07-09T01:35:11;9.25;;;7.28;;
75916;SDS011;64595;50.148;14.334;2023-07-09T01:37:37;9.10;;;7.60;;
75916;SDS011;64595;50.148;14.334;2023-07-09T01:40:05;8.35;;;6.85;;
75916;SDS011;64595;50.148;14.334;2023-07-09T01:42:32;9.30;;;7.35;;
75916;SDS011;64595;50.148;14.334;2023-07-09T01:44:58;9.48;;;7.53;;
75916;SDS011;64595;50.148;14.334;2023-07-09T01:47:23;9.35;;;7.03;;
75916;SDS011;64595;50.148;14.334;2023-07-09T01:49:49;8.57;;;6.97;;
75916;SDS011;64595;50.148;14.334;2023-07-09T01:52:15;10.15;;;6.95;;
75916;SDS011;64595;50.148;14.334;2023-07-09T01:54:42;13.00;;;7.45;;
75916;SDS011;64595;50.148;14.334;2023-07-09T01:57:17;9.25;;;7.57;;
75916;SDS011;64595;50.148;14.334;2023-07-09T01:59:43;9.77;;;7.88;;
75916;SDS011;64595;50.148;14.334;2023-07-09T02:02:09;9.18;;;6.72;;
75916;SDS011;64595;50.148;14.334;2023-07-09T02:04:34;9.43;;;7.60;;
75916;SDS011;64595;50.148;14.334;2023-07-09T02:07:01;8.90;;;8.00;;
75916;SDS011;64595;50.148;14.334;2023-07-09T02:09:27;8.05;;;7.00;;
75916;SDS011;64595;50.148;14.334;2023-07-09T02:11:52;9.38;;;8.00;;
75916;SDS011;64595;50.148;14.334;2023-07-09T02:14:19;9.18;;;7.38;;
75916;SDS011;64595;50.148;14.334;2023-07-09T02:16:45;8.73;;;6.93;;
75916;SDS011;64595;50.148;14.334;2023-07-09T02:19:10;8.73;;;7.80;;
75916;SDS011;64595;50.148;14.334;2023-07-09T02:21:35;8.65;;;7.10;;
75916;SDS011;64595;50.148;14.334;2023-07-09T02:24:01;9.07;;;7.75;;
75916;SDS011;64595;50.148;14.334;2023-07-09T02:26:27;9.02;;;7.35;;
75916;SDS011;64595;50.148;14.334;2023-07-09T02:28:52;11.63;;;8.13;;
75916;SDS011;64595;50.148;14.334;2023-07-09T02:31:19;10.52;;;7.63;;
75916;SDS011;64595;50.148;14.334;2023-07-09T02:33:44;9.68;;;7.85;;
75916;SDS011;64595;50.148;14.334;2023-07-09T02:36:10;8.82;;;7.75;;
75916;SDS011;64595;50.148;14.334;2023-07-09T02:38:35;8.25;;;7.05;;
75916;SDS011;64595;50.148;14.334;2023-07-09T02:41:01;9.10;;;7.10;;
75916;SDS011;64595;50.148;14.334;2023-07-09T02:43:26;10.68;;;7.30;;
75916;SDS011;64595;50.148;14.334;2023-07-09T02:45:52;9.82;;;7.97;;
75916;SDS011;64595;50.148;14.334;2023-07-09T02:48:19;10.60;;;8.73;;
75916;SDS011;64595;50.148;14.334;2023-07-09T02:50:44;11.45;;;8.25;;
75916;SDS011;64595;50.148;14.334;2023-07-09T02:53:10;10.75;;;8.45;;
75916;SDS011;64595;50.148;14.334;2023-07-09T02:55:35;9.07;;;7.90;;
75916;SDS011;64595;50.148;14.334;2023-07-09T02:58:00;9.20;;;8.25;;
75916;SDS011;64595;50.148;14.334;2023-07-09T03:00:26;10.50;;;8.30;;
75916;SDS011;64595;50.148;14.334;2023-07-09T03:02:52;9.07;;;7.50;;
75916;SDS011;64595;50.148;14.334;2023-07-09T03:05:18;9.60;;;7.63;;
75916;SDS011;64595;50.148;14.334;2023-07-09T03:07:44;9.32;;;7.75;;
75916;SDS011;64595;50.148;14.334;2023-07-09T03:10:09;9.77;;;7.85;;
75916;SDS011;64595;50.148;14.334;2023-07-09T03:12:35;9.50;;;7.80;;
75916;SDS011;64595;50.148;14.334;2023-07-09T03:15:00;10.30;;;7.32;;
75916;SDS011;64595;50.148;14.334;2023-07-09T03:17:26;7.85;;;7.05;;
75916;SDS011;64595;50.148;14.334;2023-07-09T03:19:51;9.10;;;7.35;;
75916;SDS011;64595;50.148;14.334;2023-07-09T03:22:18;11.45;;;8.70;;
75916;SDS011;64595;50.148;14.334;2023-07-09T03:24:43;9.00;;;8.05;;
75916;SDS011;64595;50.148;14.334;2023-07-09T03:27:09;9.32;;;7.28;;
75916;SDS011;64595;50.148;14.334;2023-07-09T03:29:34;9.13;;;7.07;;
75916;SDS011;64595;50.148;14.334;2023-07-09T03:32:00;9.35;;;7.97;;
75916;SDS011;64595;50.148;14.334;2023-07-09T03:34:25;9.32;;;7.88;;
75916;SDS011;64595;50.148;14.334;2023-07-09T03:36:51;10.55;;;8.07;;
75916;SDS011;64595;50.148;14.334;2023-07-09T03:39:18;9.25;;;8.15;;
75916;SDS011;64595;50.148;14.334;2023-07-09T03:41:43;9.85;;;7.03;;
75916;SDS011;64595;50.148;14.334;2023-07-09T03:44:09;9.90;;;7.35;;
75916;SDS011;64595;50.148;14.334;2023-07-09T03:46:35;10.82;;;8.45;;
75916;SDS011;64595;50.148;14.334;2023-07-09T03:49:01;8.57;;;7.43;;
75916;SDS011;64595;50.148;14.334;2023-07-09T03:51:26;12.70;;;7.60;;
75916;SDS011;64595;50.148;14.334;2023-07-09T03:53:52;11.73;;;7.85;;
75916;SDS011;64595;50.148;14.334;2023-07-09T03:56:18;8.85;;;7.82;;
75916;SDS011;64595;50.148;14.334;2023-07-09T03:58:44;9.55;;;7.88;;
75916;SDS011;64595;50.148;14.334;2023-07-09T04:01:09;9.30;;;7.82;;
75916;SDS011;64595;50.148;14.334;2023-07-09T04:03:35;9.18;;;7.13;;
75916;SDS011;64595;50.148;14.334;2023-07-09T04:06:00;10.32;;;9.13;;
75916;SDS011;64595;50.148;14.334;2023-07-09T04:08:26;9.98;;;7.85;;
75916;SDS011;64595;50.148;14.334;2023-07-09T04:10:52;9.48;;;7.70;;
75916;SDS011;64595;50.148;14.334;2023-07-09T04:13:19;10.88;;;9.45;;
75916;SDS011;64595;50.148;14.334;2023-07-09T04:15:45;9.32;;;7.57;;
75916;SDS011;64595;50.148;14.334;2023-07-09T04:18:10;9.38;;;7.32;;
75916;SDS011;64595;50.148;14.334;2023-07-09T04:20:36;9.98;;;7.78;;
75916;SDS011;64595;50.148;14.334;2023-07-09T04:23:01;8.60;;;7.70;;
75916;SDS011;64595;50.148;14.334;2023-07-09T04:25:27;10.13;;;8.32;;
75916;SDS011;64595;50.148;14.334;2023-07-09T04:27:52;8.55;;;7.65;;
75916;SDS011;64595;50.148;14.334;2023-07-09T04:30:19;9.15;;;7.47;;
75916;SDS011;64595;50.148;14.334;2023-07-09T04:32:46;11.23;;;8.48;;
75916;SDS011;64595;50.148;14.334;2023-07-09T04:35:12;7.97;;;6.80;;
75916;SDS011;64595;50.148;14.334;2023-07-09T04:37:38;7.85;;;6.47;;
75916;SDS011;64595;50.148;14.334;2023-07-09T04:40:05;10.02;;;8.45;;
75916;SDS011;64595;50.148;14.334;2023-07-09T04:42:32;12.10;;;8.20;;
75916;SDS011;64595;50.148;14.334;2023-07-09T04:44:57;9.30;;;6.97;;
75916;SDS011;64595;50.148;14.334;2023-07-09T04:47:24;8.23;;;7.43;;
75916;SDS011;64595;50.148;14.334;2023-07-09T04:49:50;10.23;;;7.80;;
75916;SDS011;64595;50.148;14.334;2023-07-09T04:52:15;9.90;;;6.97;;
75916;SDS011;64595;50.148;14.334;2023-07-09T04:54:41;9.05;;;7.18;;
75916;SDS011;64595;50.148;14.334;2023-07-09T04:57:07;7.22;;;6.53;;
75916;SDS011;64595;50.148;14.334;2023-07-09T04:59:32;8.02;;;6.97;;
75916;SDS011;64595;50.148;14.334;2023-07-09T05:01:58;8.63;;;7.60;;
75916;SDS011;64595;50.148;14.334;2023-07-09T05:04:25;9.80;;;6.72;;
75916;SDS011;64595;50.148;14.334;2023-07-09T05:06:50;8.30;;;6.95;;
75916;SDS011;64595;50.148;14.334;2023-07-09T05:09:16;8.27;;;7.32;;
75916;SDS011;64595;50.148;14.334;2023-07-09T05:11:41;9.05;;;7.22;;
75916;SDS011;64595;50.148;14.334;2023-07-09T05:14:07;8.98;;;7.47;;
75916;SDS011;64595;50.148;14.334;2023-07-09T05:16:32;9.63;;;7.32;;
75916;SDS011;64595;50.148;14.334;2023-07-09T05:18:58;10.35;;;7.43;;
75916;SDS011;64595;50.148;14.334;2023-07-09T05:21:25;9.13;;;7.00;;
75916;SDS011;64595;50.148;14.334;2023-07-09T05:23:51;7.88;;;7.07;;
75916;SDS011;64595;50.148;14.334;2023-07-09T05:26:16;8.10;;;6.93;;
75916;SDS011;64595;50.148;14.334;2023-07-09T05:28:41;8.45;;;7.53;;
75916;SDS011;64595;50.148;14.334;2023-07-09T05:31:07;8.23;;;6.25;;
75916;SDS011;64595;50.148;14.334;2023-07-09T05:33:33;9.95;;;6.28;;
75916;SDS011;64595;50.148;14.334;2023-07-09T05:35:58;7.00;;;5.93;;
75916;SDS011;64595;50.148;14.334;2023-07-09T05:38:25;7.10;;;6.05;;
75916;SDS011;64595;50.148;14.334;2023-07-09T05:40:58;7.30;;;6.38;;
75916;SDS011;64595;50.148;14.334;2023-07-09T05:43:24;10.18;;;7.13;;
75916;SDS011;64595;50.148;14.334;2023-07-09T05:45:50;7.32;;;6.07;;
75916;SDS011;64595;50.148;14.334;2023-07-09T05:48:15;7.80;;;7.00;;
75916;SDS011;64595;50.148;14.334;2023-07-09T05:50:40;8.38;;;6.90;;
75916;SDS011;64595;50.148;14.334;2023-07-09T05:53:07;9.27;;;6.88;;
75916;SDS011;64595;50.148;14.334;2023-07-09T05:55:33;7.10;;;6.13;;
75916;SDS011;64595;50.148;14.334;2023-07-09T05:57:59;8.52;;;6.45;;
75916;SDS011;64595;50.148;14.334;2023-07-09T06:00:24;7.88;;;7.07;;
75916;SDS011;64595;50.148;14.334;2023-07-09T06:02:50;8.20;;;6.60;;
75916;SDS011;64595;50.148;14.334;2023-07-09T06:05:16;9.20;;;6.00;;
75916;SDS011;64595;50.148;14.334;2023-07-09T06:07:42;9.00;;;7.05;;
75916;SDS011;64595;50.148;14.334;2023-07-09T06:10:07;8.07;;;7.28;;
75916;SDS011;64595;50.148;14.334;2023-07-09T06:12:35;7.70;;;6.90;;
75916;SDS011;64595;50.148;14.334;2023-07-09T06:15:01;7.55;;;6.40;;
75916;SDS011;64595;50.148;14.334;2023-07-09T06:17:26;8.80;;;6.60;;
75916;SDS011;64595;50.148;14.334;2023-07-09T06:19:52;9.40;;;7.50;;
75916;SDS011;64595;50.148;14.334;2023-07-09T06:22:17;9.68;;;7.43;;
75916;SDS011;64595;50.148;14.334;2023-07-09T06:24:44;9.02;;;6.80;;
75916;SDS011;64595;50.148;14.334;2023-07-09T06:29:36;10.50;;;9.33;;
75916;SDS011;64595;50.148;14.334;2023-07-09T06:32:02;9.07;;;7.55;;
75916;SDS011;64595;50.148;14.334;2023-07-09T06:34:28;7.55;;;6.75;;
75916;SDS011;64595;50.148;14.334;2023-07-09T06:36:56;10.20;;;7.70;;
75916;SDS011;64595;50.148;14.334;2023-07-09T06:39:21;7.95;;;7.00;;
75916;SDS011;64595;50.148;14.334;2023-07-09T06:41:47;8.88;;;7.10;;
75916;SDS011;64595;50.148;14.334;2023-07-09T06:44:13;8.73;;;6.72;;
75916;SDS011;64595;50.148;14.334;2023-07-09T06:46:39;8.05;;;6.82;;
75916;SDS011;64595;50.148;14.334;2023-07-09T06:49:05;12.45;;;7.57;;
75916;SDS011;64595;50.148;14.334;2023-07-09T06:51:30;7.70;;;6.35;;
75916;SDS011;64595;50.148;14.334;2023-07-09T06:53:56;8.30;;;6.90;;
75916;SDS011;64595;50.148;14.334;2023-07-09T06:56:21;8.82;;;6.68;;
75916;SDS011;64595;50.148;14.334;2023-07-09T06:58:47;7.07;;;6.35;;
75916;SDS011;64595;50.148;14.334;2023-07-09T07:01:12;8.50;;;6.00;;
75916;SDS011;64595;50.148;14.334;2023-07-09T07:03:39;7.70;;;6.22;;
75916;SDS011;64595;50.148;14.334;2023-07-09T07:06:05;7.88;;;6.78;;
75916;SDS011;64595;50.148;14.334;2023-07-09T07:08:30;11.45;;;6.28;;
75916;SDS011;64595;50.148;14.334;2023-07-09T07:10:56;7.28;;;6.47;;
75916;SDS011;64595;50.148;14.334;2023-07-09T07:13:22;7.43;;;6.35;;
75916;SDS011;64595;50.148;14.334;2023-07-09T07:15:48;7.63;;;6.45;;
75916;SDS011;64595;50.148;14.334;2023-07-09T07:18:14;7.82;;;6.65;;
75916;SDS011;64595;50.148;14.334;2023-07-09T07:20:40;7.75;;;6.55;;
75916;SDS011;64595;50.148;14.334;2023-07-09T07:23:06;7.57;;;5.30;;
75916;SDS011;64595;50.148;14.334;2023-07-09T07:25:31;7.65;;;6.22;;
75916;SDS011;64595;50.148;14.334;2023-07-09T07:27:57;7.97;;;6.20;;
75916;SDS011;64595;50.148;14.334;2023-07-09T07:30:22;7.18;;;6.32;;
75916;SDS011;64595;50.148;14.334;2023-07-09T07:32:48;6.85;;;6.15;;
75916;SDS011;64595;50.148;14.334;2023-07-09T07:35:13;8.30;;;6.82;;
75916;SDS011;64595;50.148;14.334;2023-07-09T07:37:40;11.27;;;7.03;;
75916;SDS011;64595;50.148;14.334;2023-07-09T07:42:32;8.20;;;6.13;;
75916;SDS011;64595;50.148;14.334;2023-07-09T07:44:58;9.18;;;6.32;;
75916;SDS011;64595;50.148;14.334;2023-07-09T07:47:23;7.15;;;6.00;;
75916;SDS011;64595;50.148;14.334;2023-07-09T07:49:49;6.90;;;5.80;;
75916;SDS011;64595;50.148;14.334;2023-07-09T07:52:14;7.25;;;5.70;;
75916;SDS011;64595;50.148;14.334;2023-07-09T07:54:41;6.40;;;5.70;;
75916;SDS011;64595;50.148;14.334;2023-07-09T07:57:06;7.22;;;5.93;;
75916;SDS011;64595;50.148;14.334;2023-07-09T07:59:32;6.72;;;5.97;;
75916;SDS011;64595;50.148;14.334;2023-07-09T08:01:57;6.35;;;5.70;;
75916;SDS011;64595;50.148;14.334;2023-07-09T08:04:23;6.95;;;6.15;;
75916;SDS011;64595;50.148;14.334;2023-07-09T08:06:48;6.18;;;5.57;;
75916;SDS011;64595;50.148;14.334;2023-07-09T08:09:14;5.43;;;4.75;;
75916;SDS011;64595;50.148;14.334;2023-07-09T08:11:41;6.65;;;4.95;;
75916;SDS011;64595;50.148;14.334;2023-07-09T08:14:07;6.03;;;5.13;;
75916;SDS011;64595;50.148;14.334;2023-07-09T08:16:35;6.40;;;4.90;;
75916;SDS011;64595;50.148;14.334;2023-07-09T08:19:00;7.38;;;5.28;;
75916;SDS011;64595;50.148;14.334;2023-07-09T08:21:26;7.22;;;5.30;;
75916;SDS011;64595;50.148;14.334;2023-07-09T08:23:51;6.80;;;5.28;;
75916;SDS011;64595;50.148;14.334;2023-07-09T08:26:17;6.20;;;5.43;;
75916;SDS011;64595;50.148;14.334;2023-07-09T08:28:45;5.80;;;5.18;;
75916;SDS011;64595;50.148;14.334;2023-07-09T08:31:10;8.73;;;6.05;;
75916;SDS011;64595;50.148;14.334;2023-07-09T08:33:36;6.85;;;5.50;;
75916;SDS011;64595;50.148;14.334;2023-07-09T08:36:01;6.38;;;5.70;;
75916;SDS011;64595;50.148;14.334;2023-07-09T08:38:27;8.32;;;6.13;;
75916;SDS011;64595;50.148;14.334;2023-07-09T08:40:54;8.15;;;5.47;;
75916;SDS011;64595;50.148;14.334;2023-07-09T08:43:31;7.47;;;5.82;;
75916;SDS011;64595;50.148;14.334;2023-07-09T08:46:01;6.32;;;5.47;;
75916;SDS011;64595;50.148;14.334;2023-07-09T08:48:29;7.55;;;5.90;;
75916;SDS011;64595;50.148;14.334;2023-07-09T08:50:58;7.60;;;5.50;;
75916;SDS011;64595;50.148;14.334;2023-07-09T08:53:27;6.47;;;5.32;;
75916;SDS011;64595;50.148;14.334;2023-07-09T08:55:56;8.80;;;5.55;;
75916;SDS011;64595;50.148;14.334;2023-07-09T08:58:23;9.82;;;5.68;;
75916;SDS011;64595;50.148;14.334;2023-07-09T09:00:51;8.90;;;5.50;;
75916;SDS011;64595;50.148;14.334;2023-07-09T09:03:26;7.05;;;5.25;;
75916;SDS011;64595;50.148;14.334;2023-07-09T09:05:54;6.07;;;5.38;;
75916;SDS011;64595;50.148;14.334;2023-07-09T09:08:23;6.00;;;5.40;;
75916;SDS011;64595;50.148;14.334;2023-07-09T09:10:57;7.80;;;6.00;;
75916;SDS011;64595;50.148;14.334;2023-07-09T09:13:27;7.07;;;5.40;;
75916;SDS011;64595;50.148;14.334;2023-07-09T09:16:03;6.53;;;5.18;;
75916;SDS011;64595;50.148;14.334;2023-07-09T09:18:34;8.02;;;5.05;;
75916;SDS011;64595;50.148;14.334;2023-07-09T09:21:03;7.32;;;5.82;;
75916;SDS011;64595;50.148;14.334;2023-07-09T09:23:36;7.40;;;5.65;;
75916;SDS011;64595;50.148;14.334;2023-07-09T09:26:14;7.82;;;5.55;;
75916;SDS011;64595;50.148;14.334;2023-07-09T09:28:41;8.15;;;5.65;;
75916;SDS011;64595;50.148;14.334;2023-07-09T09:31:08;6.60;;;6.00;;
75916;SDS011;64595;50.148;14.334;2023-07-09T09:33:39;5.93;;;5.32;;
75916;SDS011;64595;50.148;14.334;2023-07-09T09:36:11;6.45;;;5.28;;
75916;SDS011;64595;50.148;14.334;2023-07-09T09:38:41;6.28;;;4.88;;
75916;SDS011;64595;50.148;14.334;2023-07-09T09:41:10;6.85;;;5.40;;
75916;SDS011;64595;50.148;14.334;2023-07-09T09:43:38;5.65;;;5.05;;
75916;SDS011;64595;50.148;14.334;2023-07-09T09:46:07;6.68;;;5.30;;
75916;SDS011;64595;50.148;14.334;2023-07-09T09:48:36;6.97;;;5.10;;
75916;SDS011;64595;50.148;14.334;2023-07-09T09:51:03;5.35;;;4.85;;
75916;SDS011;64595;50.148;14.334;2023-07-09T09:53:30;5.65;;;4.72;;
75916;SDS011;64595;50.148;14.334;2023-07-09T09:56:03;5.05;;;4.55;;
75916;SDS011;64595;50.148;14.334;2023-07-09T09:58:30;7.28;;;4.80;;
75916;SDS011;64595;50.148;14.334;2023-07-09T10:00:56;5.97;;;5.03;;
75916;SDS011;64595;50.148;14.334;2023-07-09T10:03:31;5.13;;;4.63;;
75916;SDS011;64595;50.148;14.334;2023-07-09T10:05:59;8.15;;;5.10;;
75916;SDS011;64595;50.148;14.334;2023-07-09T10:08:28;6.72;;;4.78;;
75916;SDS011;64595;50.148;14.334;2023-07-09T10:11:00;7.80;;;4.93;;
75916;SDS011;64595;50.148;14.334;2023-07-09T10:13:31;6.07;;;4.57;;
75916;SDS011;64595;50.148;14.334;2023-07-09T10:16:01;7.50;;;4.53;;
75916;SDS011;64595;50.148;14.334;2023-07-09T10:18:32;5.38;;;4.43;;
75916;SDS011;64595;50.148;14.334;2023-07-09T10:21:07;5.18;;;4.65;;
75916;SDS011;64595;50.148;14.334;2023-07-09T10:23:36;9.00;;;4.25;;
75916;SDS011;64595;50.148;14.334;2023-07-09T10:26:08;4.68;;;4.05;;
75916;SDS011;64595;50.148;14.334;2023-07-09T10:28:41;8.90;;;4.65;;
75916;SDS011;64595;50.148;14.334;2023-07-09T10:31:16;5.40;;;4.90;;
75916;SDS011;64595;50.148;14.334;2023-07-09T10:33:54;8.18;;;4.30;;
75916;SDS011;64595;50.148;14.334;2023-07-09T10:36:28;5.80;;;4.57;;
75916;SDS011;64595;50.148;14.334;2023-07-09T10:39:00;5.07;;;4.35;;
75916;SDS011;64595;50.148;14.334;2023-07-09T10:41:28;5.65;;;4.57;;
75916;SDS011;64595;50.148;14.334;2023-07-09T10:43:56;5.18;;;4.32;;
75916;SDS011;64595;50.148;14.334;2023-07-09T10:46:24;6.38;;;4.82;;
75916;SDS011;64595;50.148;14.334;2023-07-09T10:48:52;5.45;;;4.30;;
75916;SDS011;64595;50.148;14.334;2023-07-09T10:51:21;6.20;;;5.00;;
75916;SDS011;64595;50.148;14.334;2023-07-09T10:53:50;5.03;;;4.53;;
75916;SDS011;64595;50.148;14.334;2023-07-09T10:56:20;6.32;;;4.47;;
75916;SDS011;64595;50.148;14.334;2023-07-09T10:58:50;7.80;;;4.43;;
75916;SDS011;64595;50.148;14.334;2023-07-09T11:01:19;5.35;;;4.55;;
75916;SDS011;64595;50.148;14.334;2023-07-09T11:03:54;4.60;;;4.10;;
75916;SDS011;64595;50.148;14.334;2023-07-09T11:09:04;6.63;;;4.20;;
75916;SDS011;64595;50.148;14.334;2023-07-09T11:11:32;5.25;;;3.95;;
75916;SDS011;64595;50.148;14.334;2023-07-09T11:13:59;5.80;;;4.53;;
75916;SDS011;64595;50.148;14.334;2023-07-09T11:16:30;5.03;;;4.30;;
75916;SDS011;64595;50.148;14.334;2023-07-09T11:18:58;5.00;;;4.30;;
75916;SDS011;64595;50.148;14.334;2023-07-09T11:21:24;6.03;;;4.70;;
75916;SDS011;64595;50.148;14.334;2023-07-09T11:23:51;4.68;;;4.20;;
75916;SDS011;64595;50.148;14.334;2023-07-09T11:26:23;5.97;;;4.60;;
75916;SDS011;64595;50.148;14.334;2023-07-09T11:28:50;6.65;;;4.60;;
75916;SDS011;64595;50.148;14.334;2023-07-09T11:31:20;4.40;;;4.00;;
75916;SDS011;64595;50.148;14.334;2023-07-09T11:33:48;5.70;;;4.65;;
75916;SDS011;64595;50.148;14.334;2023-07-09T11:36:23;5.07;;;4.32;;
75916;SDS011;64595;50.148;14.334;2023-07-09T11:38:49;5.63;;;4.10;;
75916;SDS011;64595;50.148;14.334;2023-07-09T11:41:24;6.50;;;4.32;;
75916;SDS011;64595;50.148;14.334;2023-07-09T11:43:51;7.18;;;4.57;;
75916;SDS011;64595;50.148;14.334;2023-07-09T11:46:17;5.22;;;4.22;;
75916;SDS011;64595;50.148;14.334;2023-07-09T11:48:44;7.57;;;4.63;;
75916;SDS011;64595;50.148;14.334;2023-07-09T11:51:13;5.43;;;4.20;;
75916;SDS011;64595;50.148;14.334;2023-07-09T11:53:41;6.43;;;4.18;;
75916;SDS011;64595;50.148;14.334;2023-07-09T11:56:09;5.15;;;4.28;;
75916;SDS011;64595;50.148;14.334;2023-07-09T11:58:36;5.13;;;4.63;;
75916;SDS011;64595;50.148;14.334;2023-07-09T12:01:01;5.35;;;4.57;;
75916;SDS011;64595;50.148;14.334;2023-07-09T12:03:27;6.28;;;4.25;;
75916;SDS011;64595;50.148;14.334;2023-07-09T12:05:56;5.35;;;4.25;;
75916;SDS011;64595;50.148;14.334;2023-07-09T12:08:25;5.45;;;4.32;;
75916;SDS011;64595;50.148;14.334;2023-07-09T12:10:52;7.38;;;4.30;;
75916;SDS011;64595;50.148;14.334;2023-07-09T12:13:18;6.53;;;4.28;;
75916;SDS011;64595;50.148;14.334;2023-07-09T12:15:45;7.15;;;5.22;;
75916;SDS011;64595;50.148;14.334;2023-07-09T12:18:12;5.18;;;4.65;;
75916;SDS011;64595;50.148;14.334;2023-07-09T12:20:38;5.35;;;4.43;;
75916;SDS011;64595;50.148;14.334;2023-07-09T12:23:10;7.00;;;4.80;;
75916;SDS011;64595;50.148;14.334;2023-07-09T12:28:01;5.17;;;4.60;;
75916;SDS011;64595;50.148;14.334;2023-07-09T12:30:28;5.60;;;4.18;;
75916;SDS011;64595;50.148;14.334;2023-07-09T12:32:58;5.05;;;4.20;;
75916;SDS011;64595;50.148;14.334;2023-07-09T12:35:24;5.70;;;4.43;;
75916;SDS011;64595;50.148;14.334;2023-07-09T12:37:57;5.88;;;4.22;;
75916;SDS011;64595;50.148;14.334;2023-07-09T12:40:23;5.25;;;4.32;;
75916;SDS011;64595;50.148;14.334;2023-07-09T12:42:53;5.05;;;4.22;;
75916;SDS011;64595;50.148;14.334;2023-07-09T12:45:19;6.13;;;3.90;;
75916;SDS011;64595;50.148;14.334;2023-07-09T12:47:45;5.47;;;4.80;;
75916;SDS011;64595;50.148;14.334;2023-07-09T12:50:29;6.93;;;4.30;;
75916;SDS011;64595;50.148;14.334;2023-07-09T12:52:56;4.97;;;4.00;;
75916;SDS011;64595;50.148;14.334;2023-07-09T12:55:26;4.80;;;4.05;;
75916;SDS011;64595;50.148;14.334;2023-07-09T12:57:54;5.22;;;3.80;;
75916;SDS011;64595;50.148;14.334;2023-07-09T13:00:20;5.50;;;3.90;;
75916;SDS011;64595;50.148;14.334;2023-07-09T13:02:50;5.60;;;4.00;;
75916;SDS011;64595;50.148;14.334;2023-07-09T13:05:19;4.90;;;4.20;;
75916;SDS011;64595;50.148;14.334;2023-07-09T13:07:49;9.77;;;4.38;;
75916;SDS011;64595;50.148;14.334;2023-07-09T13:10:17;5.10;;;3.85;;
75916;SDS011;64595;50.148;14.334;2023-07-09T13:12:45;7.53;;;4.53;;
75916;SDS011;64595;50.148;14.334;2023-07-09T13:15:24;6.57;;;4.00;;
75916;SDS011;64595;50.148;14.334;2023-07-09T13:17:56;4.70;;;4.28;;
75916;SDS011;64595;50.148;14.334;2023-07-09T13:20:22;5.78;;;3.90;;
75916;SDS011;64595;50.148;14.334;2023-07-09T13:22:49;6.68;;;4.30;;
75916;SDS011;64595;50.148;14.334;2023-07-09T13:25:14;5.07;;;3.85;;
75916;SDS011;64595;50.148;14.334;2023-07-09T13:27:40;5.32;;;3.88;;
75916;SDS011;64595;50.148;14.334;2023-07-09T13:30:07;7.07;;;3.90;;
75916;SDS011;64595;50.148;14.334;2023-07-09T13:32:33;5.30;;;3.70;;
75916;SDS011;64595;50.148;14.334;2023-07-09T13:34:58;4.90;;;3.83;;
75916;SDS011;64595;50.148;14.334;2023-07-09T13:37:24;6.35;;;4.25;;
75916;SDS011;64595;50.148;14.334;2023-07-09T13:39:51;5.97;;;3.85;;
75916;SDS011;64595;50.148;14.334;2023-07-09T13:42:17;6.13;;;5.47;;
75916;SDS011;64595;50.148;14.334;2023-07-09T13:47:11;6.28;;;5.25;;
75916;SDS011;64595;50.148;14.334;2023-07-09T13:49:37;7.13;;;6.15;;
75916;SDS011;64595;50.148;14.334;2023-07-09T13:52:03;6.57;;;5.63;;
75916;SDS011;64595;50.148;14.334;2023-07-09T13:54:30;6.65;;;5.47;;
75916;SDS011;64595;50.148;14.334;2023-07-09T13:56:57;5.20;;;4.70;;
75916;SDS011;64595;50.148;14.334;2023-07-09T13:59:23;6.40;;;4.63;;
75916;SDS011;64595;50.148;14.334;2023-07-09T14:01:50;5.20;;;4.13;;
75916;SDS011;64595;50.148;14.334;2023-07-09T14:04:18;5.82;;;5.20;;
75916;SDS011;64595;50.148;14.334;2023-07-09T14:06:45;7.40;;;4.95;;
75916;SDS011;64595;50.148;14.334;2023-07-09T14:09:11;6.85;;;4.57;;
75916;SDS011;64595;50.148;14.334;2023-07-09T14:11:37;6.93;;;4.68;;
75916;SDS011;64595;50.148;14.334;2023-07-09T14:14:11;5.68;;;5.05;;
75916;SDS011;64595;50.148;14.334;2023-07-09T14:16:41;5.15;;;4.35;;
75916;SDS011;64595;50.148;14.334;2023-07-09T14:19:08;5.93;;;4.53;;
75916;SDS011;64595;50.148;14.334;2023-07-09T14:21:37;6.13;;;5.00;;
75916;SDS011;64595;50.148;14.334;2023-07-09T14:24:07;6.07;;;4.88;;
75916;SDS011;64595;50.148;14.334;2023-07-09T14:26:41;6.57;;;4.63;;
75916;SDS011;64595;50.148;14.334;2023-07-09T14:29:07;6.32;;;4.60;;
75916;SDS011;64595;50.148;14.334;2023-07-09T14:31:34;7.03;;;5.15;;
75916;SDS011;64595;50.148;14.334;2023-07-09T14:34:04;6.32;;;5.05;;
75916;SDS011;64595;50.148;14.334;2023-07-09T14:36:41;5.32;;;4.82;;
75916;SDS011;64595;50.148;14.334;2023-07-09T14:39:08;5.80;;;4.75;;
75916;SDS011;64595;50.148;14.334;2023-07-09T14:41:34;8.93;;;4.60;;
75916;SDS011;64595;50.148;14.334;2023-07-09T14:43:59;4.82;;;4.28;;
75916;SDS011;64595;50.148;14.334;2023-07-09T14:46:25;6.55;;;4.90;;
75916;SDS011;64595;50.148;14.334;2023-07-09T14:48:52;5.80;;;4.72;;